Time;durP1;ratioP1;P1;durP2;ratioP2;P2;SDS_P1;SDS_P2;PMS_P1;PMS_P2;Temp;Humidity;BMP_temperature;BMP_pressure;BME280_temperature;BME280_humidity;BME280_pressure;Samples;Min_cycle;Max_cycle;Signal;HPM_P1;HPM_P2
2023/01/10 00:00:48;;;;;;;1.98;0.80;;;;;;;5.64;100.00;100084.06;20868543;28;20051;-81
2023/01/10 00:10:49;;;;;;;2.25;0.80;;;;;;;5.53;100.00;100096.19;20901925;28;20075;-81
2023/01/10 00:20:51;;;;;;;5.15;0.95;;;;;;;5.59;100.00;100100.50;20883388;28;20156;-81
2023/01/10 00:31:08;;;;;;;2.95;0.73;;;;;;;5.57;100.00;100112.66;20890692;28;20056;-82
2023/01/10 00:43:55;;;;;;;1.30;0.40;;;;;;;5.67;100.00;100155.94;20882366;28;20045;-81
2023/01/10 00:51:31;;;;;;;1.98;0.52;;;;;;;5.56;100.00;100187.09;20892400;28;20048;-81
2023/01/10 01:01:32;;;;;;;1.98;0.60;;;;;;;5.59;100.00;100219.97;20892973;28;20036;-81
2023/01/10 01:11:34;;;;;;;1.15;0.52;;;;;;;5.55;100.00;100252.00;20861622;28;20042;-81
2023/01/10 01:21:37;;;;;;;1.25;0.40;;;;;;;5.57;100.00;100290.09;20878643;28;20048;-82
2023/01/10 01:31:41;;;;;;;3.22;0.57;;;;;;;5.62;100.00;100309.16;20875519;28;20437;-81
2023/01/10 01:41:59;;;;;;;2.00;0.70;;;;;;;5.48;100.00;100351.53;20887442;28;20140;-81
2023/01/10 01:52:00;;;;;;;3.00;0.73;;;;;;;5.49;100.00;100374.03;20894851;28;20049;-81
2023/01/10 02:02:04;;;;;;;2.37;0.80;;;;;;;5.40;100.00;100391.31;20871695;28;20052;-81
2023/01/10 02:12:08;;;;;;;4.00;0.70;;;;;;;5.50;100.00;100417.31;20883973;28;20657;-82
2023/01/10 02:22:13;;;;;;;4.35;0.70;;;;;;;5.45;100.00;100438.06;20900544;28;20075;-82
2023/01/10 02:32:14;;;;;;;3.03;0.90;;;;;;;5.55;100.00;100467.56;20946232;28;20165;-79
2023/01/10 02:42:16;;;;;;;2.72;0.90;;;;;;;5.59;100.00;100475.38;20932328;28;20547;-81
2023/01/10 02:52:18;;;;;;;5.00;1.27;;;;;;;5.57;100.00;100489.22;20899757;28;20049;-82
2023/01/10 03:02:20;;;;;;;3.72;0.90;;;;;;;5.50;100.00;100497.81;20904891;28;20083;-82
2023/01/10 03:12:22;;;;;;;4.60;1.20;;;;;;;5.39;100.00;100500.34;20904383;28;20109;-82
2023/01/10 03:22:23;;;;;;;3.22;1.17;;;;;;;5.16;100.00;100518.34;20876849;28;20045;-81
2023/01/10 03:32:24;;;;;;;3.33;1.00;;;;;;;5.04;100.00;100546.81;20890063;28;20119;-81
2023/01/10 03:42:25;;;;;;;3.28;1.00;;;;;;;5.20;100.00;100561.66;20741251;23;20201;-79
2023/01/10 03:52:27;;;;;;;3.53;0.88;;;;;;;5.23;100.00;100579.84;20719191;28;20057;-81
2023/01/10 04:02:28;;;;;;;4.50;1.02;;;;;;;5.17;100.00;100595.34;20736702;28;20060;-77
2023/01/10 04:12:29;;;;;;;6.43;1.60;;;;;;;5.19;100.00;100608.38;20738460;28;20409;-79
2023/01/10 04:22:31;;;;;;;13.98;1.80;;;;;;;5.40;100.00;100624.13;20735513;28;20057;-79
2023/01/10 04:32:32;;;;;;;11.32;2.20;;;;;;;5.31;100.00;100624.91;20717468;28;20074;-83
2023/01/10 04:42:33;;;;;;;14.07;2.75;;;;;;;5.31;100.00;100650.88;20734863;28;20132;-79
2023/01/10 04:52:34;;;;;;;18.42;3.95;;;;;;;5.32;100.00;100676.00;20726000;28;20502;-78
2023/01/10 05:02:41;;;;;;;17.20;2.72;;;;;;;5.34;100.00;100692.44;20726891;28;20092;-86
2023/01/10 05:12:42;;;;;;;16.80;2.83;;;;;;;5.33;100.00;100702.84;20743682;28;20069;-81
2023/01/10 05:22:44;;;;;;;13.50;2.85;;;;;;;5.21;100.00;100700.97;20742626;28;20434;-82
2023/01/10 05:32:46;;;;;;;16.88;3.35;;;;;;;5.23;100.00;100722.63;20739622;28;20057;-78
2023/01/10 05:42:47;;;;;;;13.18;3.33;;;;;;;5.19;100.00;100727.78;20733804;28;20534;-80
2023/01/10 05:52:48;;;;;;;13.52;3.58;;;;;;;5.32;100.00;100746.09;20727768;28;20054;-83
2023/01/10 06:02:49;;;;;;;17.52;2.95;;;;;;;5.14;100.00;100759.72;20724928;28;20050;-86
2023/01/10 06:12:51;;;;;;;11.20;2.60;;;;;;;5.16;100.00;100770.13;20729540;28;20526;-79
2023/01/10 06:22:52;;;;;;;13.27;2.42;;;;;;;5.12;100.00;100784.78;20727368;28;20112;-76
2023/01/10 06:32:53;;;;;;;13.63;2.58;;;;;;;5.04;100.00;100801.13;20723509;28;20457;-77
2023/01/10 06:42:55;;;;;;;11.43;2.40;;;;;;;4.88;100.00;100842.41;20728230;28;20057;-76
2023/01/10 06:52:56;;;;;;;17.52;3.05;;;;;;;4.88;100.00;100847.59;20730571;28;20492;-77
2023/01/10 07:02:58;;;;;;;12.65;2.90;;;;;;;4.89;100.00;100844.19;20738300;28;20053;-76
2023/01/10 07:12:59;;;;;;;14.15;2.60;;;;;;;5.00;100.00;100877.19;20749204;28;20054;-77
2023/01/10 07:23:00;;;;;;;20.40;4.75;;;;;;;5.04;100.00;100900.63;20767017;28;20062;-76
2023/01/10 07:33:02;;;;;;;9.75;2.28;;;;;;;4.99;100.00;100904.88;20737205;28;20057;-76
2023/01/10 07:43:04;;;;;;;18.80;3.53;;;;;;;4.88;100.00;100920.25;20734609;28;20707;-76
2023/01/10 07:53:05;;;;;;;14.23;2.80;;;;;;;5.03;100.00;100930.03;20725273;28;20145;-77
2023/01/10 08:03:06;;;;;;;14.13;3.00;;;;;;;5.21;100.00;100938.91;20715879;28;20061;-77
2023/01/10 08:13:08;;;;;;;16.17;4.10;;;;;;;5.26;100.00;100934.66;20720219;28;20064;-77
2023/01/10 08:23:19;;;;;;;16.75;3.60;;;;;;;5.31;100.00;100946.84;20714749;28;20050;-77
2023/01/10 08:33:20;;;;;;;20.50;3.47;;;;;;;5.53;100.00;100967.94;20735366;28;20506;-79
2023/01/10 08:43:21;;;;;;;10.98;3.65;;;;;;;5.58;100.00;100979.28;20730040;28;20108;-78
2023/01/10 08:53:23;;;;;;;16.50;4.13;;;;;;;5.73;100.00;100979.47;20734166;28;20738;-78
2023/01/10 09:03:24;;;;;;;15.77;3.78;;;;;;;5.74;100.00;100973.41;20738004;28;20054;-80
2023/01/10 09:13:25;;;;;;;15.45;4.32;;;;;;;5.66;100.00;100975.06;20745182;28;20465;-80
2023/01/10 09:23:26;;;;;;;21.42;4.47;;;;;;;5.83;100.00;101004.72;20743474;28;20054;-82
2023/01/10 09:33:28;;;;;;;25.15;3.70;;;;;;;6.07;100.00;100998.13;20747981;28;20049;-81
2023/01/10 09:43:45;;;;;;;17.73;3.58;;;;;;;6.32;100.00;101036.56;20747378;28;20462;-82
2023/01/10 09:53:46;;;;;;;22.85;7.28;;;;;;;6.34;100.00;101050.47;20754620;28;20054;-82
2023/01/10 10:03:48;;;;;;;16.48;3.22;;;;;;;6.67;100.00;101044.78;20752769;28;20042;-82
2023/01/10 10:13:50;;;;;;;15.75;3.28;;;;;;;6.76;100.00;101044.00;20759245;28;20117;-81
2023/01/10 10:23:51;;;;;;;21.85;3.50;;;;;;;6.78;100.00;101050.06;20752647;28;20265;-80
2023/01/10 10:33:52;;;;;;;18.20;2.85;;;;;;;6.66;100.00;101032.63;20766448;28;20053;-80
2023/01/10 10:43:53;;;;;;;18.13;2.88;;;;;;;6.83;100.00;101040.59;20768547;28;20041;-80
2023/01/10 10:53:55;;;;;;;17.98;3.30;;;;;;;6.82;100.00;101028.44;20762341;28;20068;-79
2023/01/10 11:03:56;;;;;;;17.45;3.15;;;;;;;6.79;100.00;101044.00;20759963;28;20060;-79
2023/01/10 11:13:57;;;;;;;15.95;3.30;;;;;;;6.95;100.00;101026.84;20761035;28;20078;-78
2023/01/10 11:23:59;;;;;;;18.40;3.58;;;;;;;7.22;100.00;101018.34;20762897;28;20069;-79
2023/01/10 11:34:00;;;;;;;12.75;3.00;;;;;;;7.39;100.00;101023.72;20786277;23;20057;-82
2023/01/10 11:44:01;;;;;;;16.00;3.58;;;;;;;7.52;100.00;101032.47;20800420;28;20049;-81
2023/01/10 11:54:05;;;;;;;15.40;3.05;;;;;;;7.27;100.00;101021.88;20797112;28;20046;-81
2023/01/10 12:04:06;;;;;;;15.48;2.60;;;;;;;7.23;100.00;101009.69;20803198;28;20081;-81
2023/01/10 12:14:10;;;;;;;18.73;3.47;;;;;;;7.37;100.00;100995.03;20809874;28;20061;-80
2023/01/10 12:24:11;;;;;;;15.35;2.85;;;;;;;7.27;100.00;100988.00;20790176;28;20121;-81
2023/01/10 12:34:12;;;;;;;11.00;2.15;;;;;;;7.27;100.00;100975.00;20785599;28;20056;-81
2023/01/10 12:44:14;;;;;;;14.30;2.42;;;;;;;7.35;100.00;100962.91;20777693;28;20050;-78
2023/01/10 12:54:15;;;;;;;19.25;3.30;;;;;;;7.64;100.00;100955.25;20853516;28;20096;-82
2023/01/10 13:04:17;;;;;;;13.95;2.38;;;;;;;7.70;100.00;100928.34;20767477;28;20087;-81
2023/01/10 13:14:19;;;;;;;12.40;1.92;;;;;;;7.74;100.00;100930.09;20802646;28;20108;-80
2023/01/10 13:24:21;;;;;;;11.20;2.05;;;;;;;7.70;100.00;100928.34;20823541;28;20048;-81
2023/01/10 13:34:24;;;;;;;9.35;1.77;;;;;;;7.63;100.00;100921.38;20796936;28;20462;-80
2023/01/10 13:44:25;;;;;;;15.30;2.00;;;;;;;7.65;100.00;100943.09;20801021;28;20041;-81
2023/01/10 13:54:27;;;;;;;14.65;2.60;;;;;;;7.78;100.00;100941.41;20790768;28;20050;-81
2023/01/10 14:04:28;;;;;;;9.85;2.58;;;;;;;7.71;100.00;100932.69;20777211;28;20046;-81
2023/01/10 14:14:29;;;;;;;11.35;2.45;;;;;;;7.58;100.00;100916.13;20777170;28;21200;-81
2023/01/10 14:24:33;;;;;;;11.97;2.77;;;;;;;7.56;100.00;100903.94;20762385;28;20046;-82
2023/01/10 14:34:38;;;;;;;8.80;1.48;;;;;;;7.51;100.00;100884.81;20781500;28;20050;-82
2023/01/10 14:44:41;;;;;;;9.50;1.87;;;;;;;7.54;100.00;100866.59;20776158;28;20050;-82
2023/01/10 14:54:47;;;;;;;8.02;1.98;;;;;;;7.31;100.00;100867.34;20773543;28;20045;-81
2023/01/10 15:04:52;;;;;;;10.35;2.53;;;;;;;7.24;100.00;100867.34;20775521;28;20045;-80
2023/01/10 15:15:01;;;;;;;10.43;2.45;;;;;;;7.16;100.00;100857.72;20809369;28;20487;-81
2023/01/10 15:25:16;;;;;;;11.05;2.25;;;;;;;7.04;100.00;100859.38;20784219;28;20057;-81
2023/01/10 15:35:19;;;;;;;10.25;3.13;;;;;;;6.84;100.00;100844.50;20825446;23;20054;-65
2023/01/10 15:45:29;;;;;;;11.10;3.35;;;;;;;6.77;100.00;100837.53;20697725;28;20047;-64
2023/01/10 15:55:30;;;;;;;9.18;2.90;;;;;;;6.62;100.00;100820.09;20651636;28;20054;-65
2023/01/10 16:05:32;;;;;;;10.00;3.05;;;;;;;6.58;100.00;100804.44;20651681;28;20046;-65
2023/01/10 16:15:39;;;;;;;8.63;1.85;;;;;;;6.59;100.00;100796.63;20651282;28;20061;-64
2023/01/10 16:25:43;;;;;;;8.30;2.20;;;;;;;6.54;100.00;100790.53;20649227;28;20053;-66
2023/01/10 16:35:44;;;;;;;12.23;3.37;;;;;;;6.50;100.00;100788.78;20648919;28;20059;-65
2023/01/10 16:45:46;;;;;;;7.50;2.22;;;;;;;6.57;100.00;100777.56;20647361;28;20053;-65
2023/01/10 16:55:47;;;;;;;14.40;6.75;;;;;;;6.52;100.00;100765.38;20648413;28;20050;-68
2023/01/10 17:05:48;;;;;;;13.68;4.65;;;;;;;6.56;100.00;100765.38;20644075;28;20055;-68
2023/01/10 17:15:50;;;;;;;14.05;5.78;;;;;;;6.58;100.00;100762.81;20642833;28;20515;-70
2023/01/10 17:25:51;;;;;;;8.02;2.50;;;;;;;6.56;100.00;100754.13;20642562;28;20096;-68
2023/01/10 17:35:53;;;;;;;14.27;3.80;;;;;;;6.56;100.00;100754.13;20641148;28;20046;-66
2023/01/10 17:56:12;;;;;;;8.13;2.53;;;;;;;6.59;100.00;100728.13;13369658;26;20053;-80
2023/01/10 18:06:13;;;;;;;10.18;2.70;;;;;;;6.62;100.00;100705.59;20821989;28;20049;-80
2023/01/10 18:16:24;;;;;;;14.88;2.67;;;;;;;6.54;100.00;100699.47;20809463;28;20089;-79
2023/01/10 18:26:27;;;;;;;7.35;2.15;;;;;;;6.58;100.00;100683.03;20802261;28;20053;-80
2023/01/10 18:36:29;;;;;;;11.93;3.13;;;;;;;6.58;100.00;100679.56;20794809;28;20124;-79
2023/01/10 18:46:31;;;;;;;14.48;4.35;;;;;;;6.61;100.00;100663.94;20788261;28;20077;-80
2023/01/10 18:56:32;;;;;;;14.50;4.72;;;;;;;6.59;100.00;100665.69;20852229;28;20070;-80
2023/01/10 19:06:34;;;;;;;13.50;3.40;;;;;;;6.55;100.00;100658.72;20805913;28;20049;-80
2023/01/10 19:16:35;;;;;;;12.90;2.70;;;;;;;6.60;100.00;100654.41;20822459;28;20061;-79
2023/01/10 19:26:38;;;;;;;13.75;3.15;;;;;;;6.67;100.00;100637.97;20799079;28;20092;-80
2023/01/10 19:36:40;;;;;;;10.07;2.55;;;;;;;6.66;100.00;100623.25;20787772;28;20054;-80
2023/01/10 19:46:42;;;;;;;12.15;3.30;;;;;;;6.71;100.00;100631.94;20802756;28;20062;-80
2023/01/10 19:56:44;;;;;;;13.48;3.45;;;;;;;6.80;100.00;100634.53;20804380;28;20058;-80
2023/01/10 20:06:46;;;;;;;13.48;3.22;;;;;;;6.74;100.00;100629.31;20786621;28;20568;-80
2023/01/10 20:16:51;;;;;;;7.32;1.88;;;;;;;6.79;100.00;100612.00;20796481;28;20050;-80
2023/01/10 20:26:56;;;;;;;11.00;2.10;;;;;;;6.84;100.00;100610.25;20814490;28;20057;-79
2023/01/10 20:36:58;;;;;;;6.85;1.60;;;;;;;7.02;100.00;100613.78;20771706;28;20057;-80
2023/01/10 20:47:01;;;;;;;7.95;1.52;;;;;;;6.91;100.00;100613.78;20791939;28;20061;-80
2023/01/10 20:57:05;;;;;;;7.28;1.25;;;;;;;6.92;100.00;100608.56;20813804;28;20132;-80
2023/01/10 21:07:06;;;;;;;8.23;1.40;;;;;;;6.79;100.00;100600.72;20811741;28;20045;-79
2023/01/10 21:17:08;;;;;;;10.55;1.70;;;;;;;6.75;100.00;100601.56;20811072;28;20053;-79
2023/01/10 21:27:09;;;;;;;9.45;1.85;;;;;;;6.78;100.00;100584.22;20831370;28;20053;-80
2023/01/10 21:37:11;;;;;;;6.20;1.63;;;;;;;6.77;100.00;100564.28;20824412;28;20052;-81
2023/01/10 21:47:12;;;;;;;8.88;1.90;;;;;;;6.79;100.00;100541.72;20818641;28;20041;-81
2023/01/10 21:57:17;;;;;;;8.95;2.60;;;;;;;6.92;100.00;100546.09;20829639;28;20049;-81
2023/01/10 22:07:19;;;;;;;8.25;1.65;;;;;;;7.02;100.00;100520.06;20839527;28;20038;-82
2023/01/10 22:17:20;;;;;;;7.47;1.63;;;;;;;7.00;100.00;100511.41;20830523;28;20077;-81
2023/01/10 22:27:21;;;;;;;5.20;1.50;;;;;;;7.09;100.00;100506.19;20843589;28;20068;-81
2023/01/10 22:37:23;;;;;;;7.18;1.83;;;;;;;7.26;100.00;100496.63;20871760;28;20064;-81
2023/01/10 22:47:24;;;;;;;5.53;1.25;;;;;;;7.33;100.00;100469.72;20864670;28;20061;-81
2023/01/10 22:57:25;;;;;;;5.20;1.33;;;;;;;7.45;100.00;100461.88;20844346;28;20118;-82
2023/01/10 23:07:29;;;;;;;6.90;1.35;;;;;;;7.56;100.00;100471.41;20834352;28;20107;-82
2023/01/10 23:17:30;;;;;;;7.20;2.03;;;;;;;7.60;100.00;100467.94;20856340;28;20062;-82
2023/01/10 23:27:31;;;;;;;7.18;1.60;;;;;;;7.65;100.00;100455.75;20854634;28;20061;-82
2023/01/10 23:37:33;;;;;;;5.97;1.83;;;;;;;7.64;100.00;100451.41;20847996;28;20099;-82
2023/01/10 23:47:34;;;;;;;6.18;1.38;;;;;;;7.66;100.00;100453.13;20849128;28;20060;-82
2023/01/10 23:57:35;;;;;;;5.82;1.48;;;;;;;7.44;100.00;100447.13;20862756;28;20046;-81
